Averill, Minnesota
Current Conditions -  °F | °C
As of 8:11 PM on Wednesday 17 Dec 2014 (Local Time) from KJKJ Reporting Station
Clear Clear  
Wind Chill: 10°   Ceiling: Unl
Heat Index: 10°   Visibility: 10mi
Dew Point: 10°   Wind: 0mph
Humidity: 100%   Direction: NA
Pressure: 30.31"   Gusts: NA
Location:  46.8905°N, 96.5417°W
Report Text: KJKJ 180211Z AUTO 00000KT 10SM CLR M12/M12 A3031 RMK AO2
Loading
Personal Weather Stations






























Interactive Weather Map New forecast layout! Learn more

10-Day Weather Forecast

Advertisements
Track Severe Weather on mobile